Time;durP1;ratioP1;P1;durP2;ratioP2;P2;SDS_P1;SDS_P2;PMS_P1;PMS_P2;Temp;Humidity;BMP_temperature;BMP_pressure;BME280_temperature;BME280_humidity;BME280_pressure;Samples;Min_cycle;Max_cycle;Signal;HPM_P1;HPM_P2
2024/04/10 00:01:22;;;;;;;;;;;;;;;7.87;100.00;97062.94;5505574;26;20080;-69
2024/04/10 00:03:48;;;;;;;;;;;;;;;7.87;100.00;97073.38;5505497;26;19972;-70
2024/04/10 00:06:14;;;;;;;;;;;;;;;7.85;100.00;97088.44;5505480;26;19987;-68
2024/04/10 00:08:39;;;;;;;;;;;;;;;7.83;100.00;97081.75;5505355;26;19970;-68
2024/04/10 00:11:06;;;;;;;;;;;;;;;7.81;100.00;97091.56;5504536;26;19971;-68
2024/04/10 00:13:32;;;;;;;;;;;;;;;7.80;100.00;97101.22;5505398;26;19968;-69
2024/04/10 00:15:58;;;;;;;;;;;;;;;7.80;100.00;97106.44;5505260;26;19947;-68
2024/04/10 00:18:24;;;;;;;;;;;;;;;7.80;100.00;97110.84;5505262;26;20160;-69
2024/04/10 00:20:50;;;;;;;;;;;;;;;7.78;100.00;97111.03;5505226;26;19978;-73
2024/04/10 00:23:15;;;;;;;;;;;;;;;7.77;100.00;97112.03;5505248;26;19981;-73
2024/04/10 00:25:41;;;;;;;;;;;;;;;7.77;100.00;97108.59;5505181;26;19980;-74
2024/04/10 00:28:07;;;;;;;;;;;;;;;7.76;100.00;97107.00;5504949;26;19975;-73
2024/04/10 00:30:34;;;;;;;;;;;;;;;7.75;100.00;97118.41;5504324;26;19960;-73
2024/04/10 00:33:00;;;;;;;;;;;;;;;7.73;100.00;97111.59;5504068;26;19956;-74
2024/04/10 00:35:26;;;;;;;;;;;;;;;7.73;100.00;97108.97;5504993;26;19986;-73
2024/04/10 00:37:52;;;;;;;;;;;;;;;7.71;100.00;97103.13;5504923;26;19969;-70
2024/04/10 00:40:18;;;;;;;;;;;;;;;7.71;100.00;97108.34;5504973;26;20098;-70
2024/04/10 00:42:43;;;;;;;;;;;;;;;7.68;100.00;97102.69;5504972;26;19966;-69
2024/04/10 00:45:09;;;;;;;;;;;;;;;7.68;100.00;97108.69;5504899;26;19954;-68
2024/04/10 00:47:35;;;;;;;;;;;;;;;7.67;100.00;97099.25;5504878;26;20176;-69
2024/04/10 00:50:01;;;;;;;;;;;;;;;7.65;100.00;97105.66;5504811;26;19959;-69
2024/04/10 00:52:28;;;;;;;;;;;;;;;7.61;100.00;97097.38;5504850;26;19969;-68
2024/04/10 00:54:53;;;;;;;;;;;;;;;7.58;100.00;97096.94;5504720;26;19970;-69
2024/04/10 00:57:19;;;;;;;;;;;;;;;7.56;100.00;97097.13;5504695;26;19951;-71
2024/04/10 00:59:45;;;;;;;;;;;;;;;7.51;100.00;97102.06;5504680;26;19987;-76
2024/04/10 01:02:11;;;;;;;;;;;;;;;7.47;100.00;97111.25;5504605;26;19954;-76
2024/04/10 01:04:37;;;;;;;;;;;;;;;7.43;100.00;97110.84;5504653;26;20043;-76
2024/04/10 01:07:06;;;;;;;;;;;;;;;7.41;100.00;97109.38;5504552;26;19959;-76
2024/04/10 01:09:32;;;;;;;;;;;;;;;7.37;100.00;97118.56;5504466;26;19977;-75
2024/04/10 01:11:58;;;;;;;;;;;;;;;7.33;100.00;97115.50;5504551;26;19954;-76
2024/04/10 01:14:24;;;;;;;;;;;;;;;7.27;100.00;97119.66;5504477;26;19972;-76
2024/04/10 01:16:50;;;;;;;;;;;;;;;7.24;100.00;97133.03;5504370;26;20038;-73
2024/04/10 01:19:16;;;;;;;;;;;;;;;7.20;100.00;97139.63;5504336;26;19962;-71
2024/04/10 01:21:42;;;;;;;;;;;;;;;7.18;100.00;97144.22;5504328;26;20123;-72
2024/04/10 01:24:07;;;;;;;;;;;;;;;7.13;100.00;97137.91;5504323;26;19965;-71
2024/04/10 01:26:33;;;;;;;;;;;;;;;7.08;100.00;97139.25;5503207;26;20033;-71
2024/04/10 01:28:59;;;;;;;;;;;;;;;7.04;100.00;97158.03;5504266;26;19972;-71
2024/04/10 01:31:27;;;;;;;;;;;;;;;7.01;100.00;97158.38;5503352;26;20024;-70
2024/04/10 01:33:53;;;;;;;;;;;;;;;6.99;100.00;97168.19;5504198;26;19962;-68
2024/04/10 01:36:18;;;;;;;;;;;;;;;6.96;100.00;97165.94;5504035;26;19957;-70
2024/04/10 01:38:46;;;;;;;;;;;;;;;6.95;100.00;97169.50;5503310;26;20049;-71
2024/04/10 01:41:11;;;;;;;;;;;;;;;6.93;100.00;97174.09;5503259;26;19958;-71
2024/04/10 01:43:37;;;;;;;;;;;;;;;6.90;100.00;97175.25;5472844;26;19976;-71
2024/04/10 01:46:03;;;;;;;;;;;;;;;6.86;100.00;97172.19;5503753;26;20024;-71
2024/04/10 01:48:29;;;;;;;;;;;;;;;6.83;100.00;97167.34;5503899;26;19963;-71
2024/04/10 01:50:55;;;;;;;;;;;;;;;6.79;100.00;97171.28;5502964;26;20122;-71
2024/04/10 01:53:21;;;;;;;;;;;;;;;6.76;100.00;97173.44;5503081;26;19956;-69
2024/04/10 01:55:46;;;;;;;;;;;;;;;6.74;100.00;97175.41;5503802;26;19974;-71
2024/04/10 01:58:12;;;;;;;;;;;;;;;6.72;100.00;97178.19;5502888;26;20024;-71
2024/04/10 02:00:38;;;;;;;;;;;;;;;6.69;100.00;97187.16;5502857;26;19955;-71
2024/04/10 02:03:04;;;;;;;;;;;;;;;6.65;100.00;97185.88;5503710;26;19971;-71
2024/04/10 02:05:30;;;;;;;;;;;;;;;6.64;100.00;97186.88;5502907;26;19956;-71
2024/04/10 02:07:56;;;;;;;;;;;;;;;6.62;100.00;97196.66;5503548;26;19959;-70
2024/04/10 02:10:21;;;;;;;;;;;;;;;6.61;100.00;97199.44;5503574;26;20168;-81
2024/04/10 02:12:47;;;;;;;;;;;;;;;6.60;100.00;97200.44;5472416;26;19957;-70
2024/04/10 02:15:13;;;;;;;;;;;;;;;6.58;100.00;97202.41;5503489;26;19954;-70
2024/04/10 02:17:39;;;;;;;;;;;;;;;6.55;100.00;97200.97;5502629;26;20010;-70
2024/04/10 02:20:06;;;;;;;;;;;;;;;6.53;100.00;97195.13;5503527;26;19961;-70
2024/04/10 02:22:32;;;;;;;;;;;;;;;6.47;100.00;97199.22;5503487;26;19954;-71
2024/04/10 02:24:58;;;;;;;;;;;;;;;6.38;100.00;97212.47;5503418;26;20051;-70
2024/04/10 02:27:23;;;;;;;;;;;;;;;6.30;100.00;97213.34;5503191;26;19963;-71
2024/04/10 02:29:49;;;;;;;;;;;;;;;6.29;100.00;97209.09;5503285;26;19966;-76
2024/04/10 02:32:15;;;;;;;;;;;;;;;6.30;100.00;97206.31;5502486;26;19964;-73
2024/04/10 02:34:41;;;;;;;;;;;;;;;6.28;100.00;97205.69;5503218;26;19974;-73
2024/04/10 02:37:07;;;;;;;;;;;;;;;6.30;100.00;97205.53;5503113;26;20173;-74
2024/04/10 02:39:33;;;;;;;;;;;;;;;6.29;100.00;97204.69;5503164;26;19969;-73
2024/04/10 02:41:59;;;;;;;;;;;;;;;6.28;100.00;97208.28;5503107;26;20148;-74
2024/04/10 02:44:25;;;;;;;;;;;;;;;6.26;100.00;97207.66;5503057;26;19963;-74
2024/04/10 02:46:51;;;;;;;;;;;;;;;6.25;100.00;97207.81;5503022;26;20018;-70
2024/04/10 02:49:17;;;;;;;;;;;;;;;6.23;100.00;97199.34;5502914;26;19956;-68
2024/04/10 02:51:43;;;;;;;;;;;;;;;6.20;100.00;97208.34;5502917;26;20091;-71
2024/04/10 02:54:09;;;;;;;;;;;;;;;6.17;100.00;97213.88;5502848;26;19975;-71
2024/04/10 02:56:35;;;;;;;;;;;;;;;6.15;100.00;97208.03;5503598;26;19963;-71
2024/04/10 02:59:01;;;;;;;;;;;;;;;6.12;100.00;97210.16;5506331;26;20207;-70
2024/04/10 03:01:26;;;;;;;;;;;;;;;6.09;100.00;97211.34;5506354;26;20156;-71
2024/04/10 03:03:52;;;;;;;;;;;;;;;6.07;100.00;97208.88;5506260;26;19957;-71
2024/04/10 03:06:18;;;;;;;;;;;;;;;6.02;100.00;97203.38;5506154;26;19959;-70
2024/04/10 03:08:44;;;;;;;;;;;;;;;5.99;100.00;97208.94;5506154;26;19987;-69
2024/04/10 03:11:10;;;;;;;;;;;;;;;5.96;100.00;97214.44;5506200;26;19949;-68
2024/04/10 03:13:37;;;;;;;;;;;;;;;5.93;100.00;97222.59;5506185;26;19959;-68
2024/04/10 03:16:04;;;;;;;;;;;;;;;5.89;100.00;97222.09;5506099;26;19950;-68
2024/04/10 03:18:30;;;;;;;;;;;;;;;5.86;100.00;97227.66;5506000;26;19967;-68
2024/04/10 03:20:56;;;;;;;;;;;;;;;5.82;100.00;97223.78;5506042;26;19966;-69
2024/04/10 03:23:22;;;;;;;;;;;;;;;5.79;100.00;97223.28;5506085;26;20171;-80
2024/04/10 03:25:48;;;;;;;;;;;;;;;5.77;100.00;97233.06;5505986;26;19995;-68
2024/04/10 03:28:14;;;;;;;;;;;;;;;5.73;100.00;97235.16;5505823;26;19965;-73
2024/04/10 03:30:40;;;;;;;;;;;;;;;5.70;100.00;97233.72;5505939;26;19962;-73
2024/04/10 03:33:06;;;;;;;;;;;;;;;5.68;100.00;97242.69;5505841;26;19950;-73
2024/04/10 03:35:32;;;;;;;;;;;;;;;5.66;100.00;97242.84;5505047;26;19991;-74
2024/04/10 03:37:58;;;;;;;;;;;;;;;5.65;100.00;97248.22;5505744;26;19949;-73
2024/04/10 03:40:24;;;;;;;;;;;;;;;5.63;100.00;97255.41;5505781;26;19950;-73
2024/04/10 03:42:50;;;;;;;;;;;;;;;5.61;100.00;97270.34;5505843;26;19954;-70
2024/04/10 03:45:15;;;;;;;;;;;;;;;5.58;100.00;97276.69;5505151;26;20227;-68
2024/04/10 03:47:43;;;;;;;;;;;;;;;5.56;100.00;97273.44;5505676;26;20012;-68
2024/04/10 03:50:09;;;;;;;;;;;;;;;5.53;100.00;97267.78;5505605;26;20182;-68
2024/04/10 03:52:35;;;;;;;;;;;;;;;5.51;100.00;97270.53;5505665;26;20001;-68
2024/04/10 03:55:00;;;;;;;;;;;;;;;5.50;100.00;97268.88;5505628;26;20013;-68
2024/04/10 03:57:27;;;;;;;;;;;;;;;5.49;100.00;97282.88;5505647;26;19969;-69
2024/04/10 03:59:53;;;;;;;;;;;;;;;5.46;100.00;97284.03;5505565;26;19946;-70
2024/04/10 04:02:18;;;;;;;;;;;;;;;5.45;100.00;97289.41;5505487;26;19959;-78
2024/04/10 04:04:44;;;;;;;;;;;;;;;5.43;100.00;97286.94;5505537;26;19948;-71
2024/04/10 04:07:10;;;;;;;;;;;;;;;5.41;100.00;97285.50;5505237;26;19969;-70
2024/04/10 04:09:36;;;;;;;;;;;;;;;5.40;100.00;97289.09;5504006;26;19980;-70
2024/04/10 04:12:02;;;;;;;;;;;;;;;5.42;100.00;97284.53;5504452;26;19949;-70
2024/04/10 04:14:28;;;;;;;;;;;;;;;5.43;100.00;97289.56;5505342;26;20167;-70
2024/04/10 04:16:54;;;;;;;;;;;;;;;5.45;100.00;97297.19;5505271;26;19951;-70
2024/04/10 04:19:20;;;;;;;;;;;;;;;5.44;100.00;97313.81;5505263;26;19967;-70
2024/04/10 04:21:45;;;;;;;;;;;;;;;5.45;100.00;97323.22;5505224;26;19979;-69
2024/04/10 04:24:11;;;;;;;;;;;;;;;5.44;100.00;97329.41;5504363;26;19955;-68
2024/04/10 04:26:37;;;;;;;;;;;;;;;5.44;100.00;97335.41;5504996;26;19983;-68
2024/04/10 04:29:03;;;;;;;;;;;;;;;5.45;100.00;97341.44;5505121;26;19959;-67
2024/04/10 04:31:29;;;;;;;;;;;;;;;5.42;100.00;97337.38;5505106;26;20007;-69
2024/04/10 04:33:55;;;;;;;;;;;;;;;5.43;100.00;97341.59;5505021;26;20203;-68
2024/04/10 04:36:21;;;;;;;;;;;;;;;5.43;100.00;97332.97;5505064;26;19956;-68
2024/04/10 04:38:47;;;;;;;;;;;;;;;5.42;100.00;97328.75;5504939;26;20114;-73
2024/04/10 04:41:12;;;;;;;;;;;;;;;5.42;100.00;97326.16;5505009;26;19959;-81
2024/04/10 04:43:38;;;;;;;;;;;;;;;5.43;100.00;97328.56;5504939;26;20165;-81
2024/04/10 04:46:07;;;;;;;;;;;;;;;5.45;100.00;97328.41;5504846;26;19949;-81
2024/04/10 04:48:33;;;;;;;;;;;;;;;5.44;100.00;97335.41;5504878;26;19951;-81
2024/04/10 04:50:59;;;;;;;;;;;;;;;5.46;100.00;97330.06;5504842;26;19962;-81
2024/04/10 04:53:25;;;;;;;;;;;;;;;5.47;100.00;97336.88;5504782;26;19951;-81
2024/04/10 04:55:51;;;;;;;;;;;;;;;5.47;100.00;97332.47;5504732;26;19947;-68
2024/04/10 04:58:16;;;;;;;;;;;;;;;5.49;100.00;97334.91;5504686;26;20053;-68
2024/04/10 05:00:42;;;;;;;;;;;;;;;5.51;100.00;97338.19;5504731;26;20006;-68
2024/04/10 05:04:54;;;;;;;;;;;;;;;5.53;100.00;97338.03;5504645;26;19962;-69
2024/04/10 05:05:57;;;;;;;;;;;;;;;5.54;100.00;97343.03;5504624;26;19947;-69
2024/04/10 05:08:23;;;;;;;;;;;;;;;5.56;100.00;97343.69;5504501;26;19951;-68
2024/04/10 05:10:48;;;;;;;;;;;;;;;5.57;100.00;97352.31;5504528;26;20179;-69
2024/04/10 05:13:14;;;;;;;;;;;;;;;5.59;100.00;97350.38;5504498;26;19989;-68
2024/04/10 05:15:40;;;;;;;;;;;;;;;5.61;100.00;97351.84;5504435;26;19983;-70
2024/04/10 05:18:06;;;;;;;;;;;;;;;5.64;100.00;97361.09;5503571;26;19967;-67
2024/04/10 05:20:32;;;;;;;;;;;;;;;5.66;100.00;97354.75;5503815;26;19965;-68
2024/04/10 05:22:57;;;;;;;;;;;;;;;5.70;100.00;97360.44;5504326;26;19967;-68
2024/04/10 05:25:23;;;;;;;;;;;;;;;5.73;100.00;97367.91;5504280;26;19955;-67
2024/04/10 05:27:49;;;;;;;;;;;;;;;5.73;100.00;97360.09;5504101;26;20206;-68
2024/04/10 05:30:16;;;;;;;;;;;;;;;5.77;100.00;97376.22;5504232;26;19955;-68
2024/04/10 05:32:42;;;;;;;;;;;;;;;5.81;100.00;97374.91;5504235;26;20182;-70
2024/04/10 05:35:12;;;;;;;;;;;;;;;5.84;100.00;97375.41;5504156;26;20044;-70
2024/04/10 05:37:39;;;;;;;;;;;;;;;5.89;100.00;97375.69;5504089;26;19954;-70
2024/04/10 05:40:16;;;;;;;;;;;;;;;5.94;100.00;97379.59;5503268;26;19947;-70
2024/04/10 05:42:43;;;;;;;;;;;;;;;6.00;100.00;97394.59;5504200;26;19953;-70
2024/04/10 05:45:10;;;;;;;;;;;;;;;6.04;100.00;97385.47;5503994;26;19962;-69
2024/04/10 05:47:36;;;;;;;;;;;;;;;6.11;100.00;97391.66;5504002;26;20046;-70
2024/04/10 05:50:03;;;;;;;;;;;;;;;6.17;100.00;97398.78;5503927;26;19971;-70
2024/04/10 05:52:30;;;;;;;;;;;;;;;6.25;100.00;97403.19;5504005;26;19977;-73
2024/04/10 05:54:56;;;;;;;;;;;;;;;6.34;100.00;97409.16;5497195;21;19975;-68
2024/04/10 05:57:24;;;;;;;;;;;;;;;6.43;100.00;97406.38;5431459;26;19969;-69
2024/04/10 05:59:53;;;;;;;;;;;;;;;6.52;100.00;97404.56;5431484;26;19968;-70
2024/04/10 06:02:19;;;;;;;;;;;;;;;6.61;100.00;97400.94;5431503;26;19954;-69
2024/04/10 06:04:45;;;;;;;;;;;;;;;6.68;100.00;97404.50;5431415;26;19978;-70
2024/04/10 06:07:11;;;;;;;;;;;;;;;6.79;100.00;97413.75;5431378;26;19949;-70
2024/04/10 06:09:37;;;;;;;;;;;;;;;6.87;100.00;97418.91;5454043;26;20085;-70
2024/04/10 06:12:03;;;;;;;;;;;;;;;6.92;100.00;97413.19;5436596;26;20151;-69
2024/04/10 06:14:29;;;;;;;;;;;;;;;6.92;100.00;97405.38;5467295;26;19966;-69
2024/04/10 06:16:54;;;;;;;;;;;;;;;6.95;100.00;97423.28;5467151;26;19950;-72
2024/04/10 06:19:21;;;;;;;;;;;;;;;6.98;100.00;97416.91;5467218;26;19973;-71
2024/04/10 06:21:47;;;;;;;;;;;;;;;7.00;100.00;97422.78;5467146;26;19953;-72
2024/04/10 06:24:15;;;;;;;;;;;;;;;7.04;100.00;97418.84;5467190;26;19990;-71
2024/04/10 06:26:41;;;;;;;;;;;;;;;7.09;100.00;97429.56;5467002;26;19974;-71
2024/04/10 06:29:07;;;;;;;;;;;;;;;7.11;100.00;97420.56;5467006;26;19951;-71
2024/04/10 06:31:33;;;;;;;;;;;;;;;7.15;100.00;97420.25;5465687;26;20163;-70
2024/04/10 06:33:59;;;;;;;;;;;;;;;7.19;100.00;97424.94;5466948;26;19954;-79
2024/04/10 06:36:25;;;;;;;;;;;;;;;7.25;100.00;97420.84;5435993;26;20189;-80
2024/04/10 06:38:51;;;;;;;;;;;;;;;7.29;100.00;97412.50;5466760;26;19982;-81
2024/04/10 06:41:17;;;;;;;;;;;;;;;7.34;100.00;97419.00;5466738;26;19979;-80
2024/04/10 06:43:43;;;;;;;;;;;;;;;7.38;100.00;97422.88;5466776;26;20007;-81
2024/04/10 06:46:09;;;;;;;;;;;;;;;7.43;100.00;97431.00;5466732;26;19993;-81
2024/04/10 06:48:35;;;;;;;;;;;;;;;7.45;100.00;97442.06;5466720;26;19945;-81
2024/04/10 06:51:01;;;;;;;;;;;;;;;7.50;100.00;97440.56;5466655;26;19971;-71
2024/04/10 06:53:28;;;;;;;;;;;;;;;7.55;100.00;97453.09;5466670;26;19970;-73
2024/04/10 06:55:55;;;;;;;;;;;;;;;7.57;100.00;97456.34;5466423;26;20191;-73
2024/04/10 06:58:21;;;;;;;;;;;;;;;7.52;100.00;97462.09;5466476;26;19963;-73
2024/04/10 07:00:57;;;;;;;;;;;;;;;7.50;100.00;97471.09;5466536;26;19947;-73
2024/04/10 07:03:24;;;;;;;;;;;;;;;7.51;100.00;97475.31;5466458;26;20100;-73
2024/04/10 07:05:50;;;;;;;;;;;;;;;7.51;100.00;97480.53;5466340;26;19961;-74
2024/04/10 07:08:16;;;;;;;;;;;;;;;7.51;100.00;97477.94;5466286;26;19981;-72
2024/04/10 07:10:43;;;;;;;;;;;;;;;7.60;100.00;97478.69;5466333;26;20013;-74
2024/04/10 07:13:08;;;;;;;;;;;;;;;7.67;100.00;97475.22;5466261;26;19967;-75
2024/04/10 07:15:34;;;;;;;;;;;;;;;7.70;100.00;97467.03;5466264;26;19955;-74
2024/04/10 07:18:00;;;;;;;;;;;;;;;7.76;100.00;97470.75;5466137;26;19967;-75
2024/04/10 07:20:26;;;;;;;;;;;;;;;7.81;99.93;97462.38;5466150;26;19954;-74
2024/04/10 07:22:52;;;;;;;;;;;;;;;7.92;100.00;97473.22;5464993;26;19952;-75
2024/04/10 07:25:17;;;;;;;;;;;;;;;8.10;100.00;97470.28;5466101;26;20157;-74
2024/04/10 07:27:44;;;;;;;;;;;;;;;8.24;100.00;97471.31;5464472;26;19964;-68
2024/04/10 07:30:10;;;;;;;;;;;;;;;8.34;100.00;97473.69;5465993;26;19952;-74
2024/04/10 07:32:36;;;;;;;;;;;;;;;8.45;100.00;97475.09;5465983;26;20101;-74
2024/04/10 07:35:02;;;;;;;;;;;;;;;8.55;100.00;97475.66;5465814;26;19956;-74
2024/04/10 07:37:28;;;;;;;;;;;;;;;8.60;99.48;97475.91;5464611;26;20058;-74
2024/04/10 07:39:54;;;;;;;;;;;;;;;8.65;96.14;97473.59;5465762;26;19967;-73
2024/04/10 07:42:19;;;;;;;;;;;;;;;8.61;94.48;97467.09;5464734;26;19992;-74
2024/04/10 07:44:45;;;;;;;;;;;;;;;8.62;92.83;97470.50;5469414;26;19955;-75
2024/04/10 07:47:11;;;;;;;;;;;;;;;8.67;93.85;97476.81;5469424;26;19970;-71
2024/04/10 07:49:37;;;;;;;;;;;;;;;8.65;92.81;97472.75;5469404;26;19959;-71
2024/04/10 07:52:03;;;;;;;;;;;;;;;8.69;94.25;97474.84;5469274;26;20002;-71
2024/04/10 07:54:31;;;;;;;;;;;;;;;8.90;92.32;97465.44;5469131;26;19962;-71
2024/04/10 07:56:57;;;;;;;;;;;;;;;9.16;93.13;97466.78;5469160;26;19948;-71
2024/04/10 07:59:23;;;;;;;;;;;;;;;9.49;92.75;97475.81;5469162;26;19972;-71
2024/04/10 08:01:49;;;;;;;;;;;;;;;9.86;91.87;97471.31;5469226;26;19957;-72
2024/04/10 08:04:15;;;;;;;;;;;;;;;10.16;85.13;97437.91;5469232;26;19951;-70
2024/04/10 08:06:40;;;;;;;;;;;;;;;10.35;82.67;97441.72;5469165;26;19977;-71
2024/04/10 08:09:06;;;;;;;;;;;;;;;10.66;83.93;97458.81;5469037;26;19994;-71
2024/04/10 08:11:33;;;;;;;;;;;;;;;11.09;79.01;97434.22;5469080;26;20163;-71
2024/04/10 08:13:59;;;;;;;;;;;;;;;11.57;80.10;97445.47;5468998;26;19974;-71
2024/04/10 08:16:25;;;;;;;;;;;;;;;11.77;71.76;97416.56;5469003;26;20158;-71
2024/04/10 08:18:51;;;;;;;;;;;;;;;11.92;77.49;97453.19;5468899;26;19983;-72
2024/04/10 08:21:18;;;;;;;;;;;;;;;12.14;76.04;97451.19;5468918;26;19955;-74
2024/04/10 08:23:44;;;;;;;;;;;;;;;12.09;75.55;97442.28;5467662;26;20110;-73
2024/04/10 08:26:10;;;;;;;;;;;;;;;12.21;67.00;97421.47;5468752;26;19992;-72
2024/04/10 08:28:45;;;;;;;;;;;;;;;12.26;68.18;97442.69;5468798;26;19973;-73
2024/04/10 08:31:15;;;;;;;;;;;;;;;12.51;71.12;97448.13;5468857;26;19958;-72
2024/04/10 08:33:41;;;;;;;;;;;;;;;12.85;70.82;97444.41;5468731;26;19971;-72
2024/04/10 08:36:10;;;;;;;;;;;;;;;13.14;63.02;97424.63;5468710;26;19979;-72
2024/04/10 08:38:36;;;;;;;;;;;;;;;13.40;66.98;97444.00;5467361;26;19975;-73
2024/04/10 08:41:03;;;;;;;;;;;;;;;13.54;57.04;97449.97;5437991;26;19947;-75
2024/04/10 08:43:34;;;;;;;;;;;;;;;13.43;57.45;97475.19;5468667;26;19969;-79
2024/04/10 08:46:00;;;;;;;;;;;;;;;13.45;64.43;97502.13;5468632;26;19965;-80
2024/04/10 08:48:26;;;;;;;;;;;;;;;13.37;61.42;97497.91;5468544;26;19990;-80
2024/04/10 08:50:55;;;;;;;;;;;;;;;13.07;60.62;97499.41;5468471;26;19976;-80
2024/04/10 08:53:22;;;;;;;;;;;;;;;13.04;66.50;97513.00;5468515;26;19960;-79
2024/04/10 08:55:48;;;;;;;;;;;;;;;13.25;63.74;97509.28;5467340;26;20158;-80
2024/04/10 08:58:14;;;;;;;;;;;;;;;13.42;62.74;97507.84;5468298;26;19976;-73
2024/04/10 09:00:40;;;;;;;;;;;;;;;13.70;56.37;97496.94;5468298;26;19958;-72
2024/04/10 09:03:06;;;;;;;;;;;;;;;13.92;51.63;97502.69;5468376;26;19954;-71
2024/04/10 09:05:32;;;;;;;;;;;;;;;13.75;57.14;97512.94;5468301;26;20164;-71
2024/04/10 09:07:58;;;;;;;;;;;;;;;13.44;62.90;97537.41;5468218;26;19977;-71
2024/04/10 09:10:24;;;;;;;;;;;;;;;13.09;59.49;97531.63;5468160;26;20157;-71
2024/04/10 09:12:50;;;;;;;;;;;;;;;12.78;56.19;97523.38;5468220;26;20104;-71
2024/04/10 09:15:19;;;;;;;;;;;;;;;12.83;60.38;97537.75;5467137;26;19950;-71
2024/04/10 09:17:46;;;;;;;;;;;;;;;13.08;61.98;97546.63;5466617;26;19980;-72
2024/04/10 09:20:13;;;;;;;;;;;;;;;13.08;62.64;97553.69;5468194;26;19961;-72
2024/04/10 09:22:38;;;;;;;;;;;;;;;13.01;60.27;97551.09;5468074;26;20165;-72
2024/04/10 09:25:11;;;;;;;;;;;;;;;12.92;60.77;97549.69;5468021;26;19958;-72
2024/04/10 09:27:37;;;;;;;;;;;;;;;12.74;56.36;97545.06;5468100;26;20085;-72
2024/04/10 09:30:05;;;;;;;;;;;;;;;12.54;59.53;97553.78;5467982;26;19946;-72
2024/04/10 09:32:35;;;;;;;;;;;;;;;12.47;58.89;97552.94;5466816;26;19978;-72
2024/04/10 09:35:02;;;;;;;;;;;;;;;12.35;58.20;97562.47;5467942;26;19955;-74
2024/04/10 09:37:30;;;;;;;;;;;;;;;12.28;62.14;97572.97;5466397;26;19995;-70
2024/04/10 09:39:56;;;;;;;;;;;;;;;12.43;62.90;97571.97;5467792;26;19969;-71
2024/04/10 09:42:26;;;;;;;;;;;;;;;12.68;57.93;97566.91;5467842;26;19970;-71
2024/04/10 09:44:59;;;;;;;;;;;;;;;12.70;62.13;97567.53;5467778;26;19956;-71
2024/04/10 09:47:25;;;;;;;;;;;;;;;12.66;58.25;97564.50;5467813;26;20144;-71
2024/04/10 09:49:53;;;;;;;;;;;;;;;12.84;56.54;97563.88;5467752;26;19967;-70
2024/04/10 09:52:20;;;;;;;;;;;;;;;13.13;58.47;97573.13;5467715;26;19983;-71
2024/04/10 09:54:46;;;;;;;;;;;;;;;13.47;48.95;97557.28;5467476;26;19984;-70
2024/04/10 09:57:13;;;;;;;;;;;;;;;13.79;48.59;97556.28;5467639;26;19986;-71
2024/04/10 09:59:39;;;;;;;;;;;;;;;13.97;55.13;97566.16;5467509;26;19986;-70
2024/04/10 10:02:08;;;;;;;;;;;;;;;14.06;58.10;97573.81;5467587;26;19968;-70
2024/04/10 10:04:40;;;;;;;;;;;;;;;14.29;53.11;97563.50;5467535;26;19971;-70
2024/04/10 10:07:06;;;;;;;;;;;;;;;14.68;54.84;97558.16;5467449;26;20095;-70
2024/04/10 10:09:32;;;;;;;;;;;;;;;14.67;53.56;97553.91;5467385;26;19962;-70
2024/04/10 10:11:58;;;;;;;;;;;;;;;14.37;49.83;97557.97;5467449;26;19949;-67
2024/04/10 10:14:25;;;;;;;;;;;;;;;14.10;51.88;97572.38;5467390;26;19950;-74
2024/04/10 10:16:51;;;;;;;;;;;;;;;14.33;51.76;97569.19;5467294;26;19949;-70
2024/04/10 10:19:25;;;;;;;;;;;;;;;14.64;51.97;97572.84;5436535;26;19986;-70
2024/04/10 10:21:58;;;;;;;;;;;;;;;14.44;50.08;97565.03;5467234;26;19940;-70
2024/04/10 10:24:24;;;;;;;;;;;;;;;14.51;49.03;97565.78;5467291;26;19957;-70
2024/04/10 10:26:57;;;;;;;;;;;;;;;14.77;53.12;97570.06;5467200;26;20025;-70
2024/04/10 10:29:23;;;;;;;;;;;;;;;15.11;53.25;97566.09;5467116;26;19967;-70
2024/04/10 10:31:48;;;;;;;;;;;;;;;15.42;49.86;97559.84;5467126;26;20066;-67
2024/04/10 10:34:22;;;;;;;;;;;;;;;15.52;46.52;97566.47;5467065;26;19965;-70
2024/04/10 10:36:50;;;;;;;;;;;;;;;15.21;44.89;97560.31;5467003;26;20074;-70
2024/04/10 10:39:16;;;;;;;;;;;;;;;14.76;41.95;97556.06;5466915;26;20068;-70
2024/04/10 10:41:42;;;;;;;;;;;;;;;14.37;41.27;97562.44;5466945;26;19951;-70
2024/04/10 10:44:07;;;;;;;;;;;;;;;13.92;45.41;97565.16;5466877;26;19972;-70
2024/04/10 10:46:34;;;;;;;;;;;;;;;13.70;43.79;97559.41;5466850;26;19970;-70
2024/04/10 10:49:01;;;;;;;;;;;;;;;13.88;45.08;97572.69;5466792;26;19959;-66
2024/04/10 10:51:28;;;;;;;;;;;;;;;14.04;43.07;97565.31;5466696;26;20086;-70
2024/04/10 10:53:53;;;;;;;;;;;;;;;14.16;43.77;97563.59;5466423;26;19971;-70
2024/04/10 10:56:26;;;;;;;;;;;;;;;14.30;45.15;97561.66;5466699;26;19943;-70
2024/04/10 10:58:52;;;;;;;;;;;;;;;14.52;40.32;97547.09;5466537;26;20092;-70
2024/04/10 11:01:18;;;;;;;;;;;;;;;14.72;43.23;97557.53;5466568;26;19978;-70
2024/04/10 11:03:44;;;;;;;;;;;;;;;14.74;43.28;97550.19;5466492;26;19957;-70
2024/04/10 11:06:10;;;;;;;;;;;;;;;14.82;47.76;97551.72;5466458;26;19963;-70
2024/04/10 11:08:36;;;;;;;;;;;;;;;15.10;46.76;97546.00;5435505;26;20068;-78
2024/04/10 11:11:04;;;;;;;;;;;;;;;15.21;46.23;97549.72;5466298;26;19950;-74
2024/04/10 11:13:30;;;;;;;;;;;;;;;15.09;47.02;97546.19;5466314;26;19963;-74
2024/04/10 11:15:59;;;;;;;;;;;;;;;14.93;47.01;97548.41;5466270;26;19954;-74
2024/04/10 11:18:26;;;;;;;;;;;;;;;14.76;44.75;97550.78;5468263;26;19952;-74
2024/04/10 11:20:52;;;;;;;;;;;;;;;14.64;44.65;97549.88;5469835;26;19953;-74
2024/04/10 11:23:19;;;;;;;;;;;;;;;14.56;44.30;97552.78;5469770;26;19951;-74
2024/04/10 11:25:45;;;;;;;;;;;;;;;14.57;44.16;97542.03;5469776;26;19958;-71
2024/04/10 11:28:11;;;;;;;;;;;;;;;14.61;44.29;97540.56;5469751;26;19953;-70
2024/04/10 11:30:38;;;;;;;;;;;;;;;14.63;43.77;97545.59;5469742;26;19952;-74
2024/04/10 11:33:07;;;;;;;;;;;;;;;14.61;42.90;97543.22;5469587;26;19953;-74
2024/04/10 11:35:34;;;;;;;;;;;;;;;14.53;43.22;97538.16;5468363;26;20084;-74
2024/04/10 11:38:00;;;;;;;;;;;;;;;14.80;42.39;97535.28;5469581;26;20090;-74
2024/04/10 11:40:25;;;;;;;;;;;;;;;15.18;43.03;97527.19;5469533;26;19954;-74
2024/04/10 11:42:51;;;;;;;;;;;;;;;15.67;42.14;97519.28;5469462;26;20110;-74
2024/04/10 11:45:20;;;;;;;;;;;;;;;16.02;48.05;97532.66;5469515;26;19955;-73
2024/04/10 11:47:48;;;;;;;;;;;;;;;16.33;43.16;97530.75;5469473;26;20010;-78
2024/04/10 11:50:17;;;;;;;;;;;;;;;16.68;39.66;97513.31;5469471;26;19955;-78
2024/04/10 11:52:44;;;;;;;;;;;;;;;16.98;37.99;97513.19;5469440;26;19944;-78
2024/04/10 11:55:09;;;;;;;;;;;;;;;16.92;38.26;97530.81;5469101;26;20108;-78
2024/04/10 11:57:35;;;;;;;;;;;;;;;16.31;35.86;97530.19;5469369;26;19954;-78
2024/04/10 12:00:05;;;;;;;;;;;;;;;15.80;35.54;97542.13;5469232;26;19954;-77
2024/04/10 12:02:31;;;;;;;;;;;;;;;15.43;38.59;97550.06;5469287;26;19954;-74
2024/04/10 12:04:56;;;;;;;;;;;;;;;14.98;37.93;97556.47;5469185;26;19968;-70
2024/04/10 12:07:22;;;;;;;;;;;;;;;14.74;40.87;97560.75;5469192;26;19966;-66
2024/04/10 12:09:48;;;;;;;;;;;;;;;14.61;44.60;97568.78;5469078;26;19944;-67
2024/04/10 12:12:14;;;;;;;;;;;;;;;14.52;42.69;97565.56;5467600;26;19970;-66
2024/04/10 12:14:44;;;;;;;;;;;;;;;14.51;42.37;97571.06;5469092;26;19976;-66
2024/04/10 12:17:10;;;;;;;;;;;;;;;14.39;44.29;97566.47;5469130;26;19968;-67
2024/04/10 12:19:36;;;;;;;;;;;;;;;14.26;40.57;97571.03;5468966;26;20090;-66
2024/04/10 12:22:02;;;;;;;;;;;;;;;14.10;42.95;97575.81;5468904;26;19980;-70
2024/04/10 12:24:28;;;;;;;;;;;;;;;14.07;44.07;97581.53;5468990;26;19959;-70
2024/04/10 12:26:55;;;;;;;;;;;;;;;14.09;42.25;97568.09;5468859;26;19980;-70
2024/04/10 12:29:21;;;;;;;;;;;;;;;13.99;42.22;97564.09;5467470;26;19974;-70
2024/04/10 12:31:47;;;;;;;;;;;;;;;13.91;41.97;97560.91;5468746;26;19974;-70
2024/04/10 12:34:13;;;;;;;;;;;;;;;13.79;41.56;97556.28;5467492;26;19957;-70
2024/04/10 12:39:23;;;;;;;;;;;;;;;13.62;40.91;97555.16;5468700;26;19976;-77
2024/04/10 12:41:49;;;;;;;;;;;;;;;13.49;39.40;97558.66;5468733;26;19963;-67
2024/04/10 12:44:17;;;;;;;;;;;;;;;13.73;40.27;97553.69;5468674;26;20156;-66
2024/04/10 12:46:43;;;;;;;;;;;;;;;13.96;42.20;97554.00;5467287;26;19957;-66